Time;durP1;ratioP1;P1;durP2;ratioP2;P2;SDS_P1;SDS_P2;PMS_P1;PMS_P2;Temp;Humidity;BMP_temperature;BMP_pressure;BME280_temperature;BME280_humidity;BME280_pressure;Samples;Min_cycle;Max_cycle;Signal;HPM_P1;HPM_P2
2022/10/30 00:01:58;;;;;;;20.63;8.53;;;16.70;47.40;;;;;;5092967;28;20390;-72
2022/10/30 00:04:23;;;;;;;15.88;7.90;;;16.70;47.50;;;;;;5092967;28;20366;-72
2022/10/30 00:06:49;;;;;;;15.43;8.80;;;16.60;48.00;;;;;;5093705;28;20755;-72
2022/10/30 00:09:15;;;;;;;20.80;8.68;;;16.60;48.30;;;;;;5093622;28;20416;-72
2022/10/30 00:11:40;;;;;;;25.23;8.97;;;16.60;47.70;;;;;;5075039;28;20398;-72
2022/10/30 00:14:07;;;;;;;17.87;8.80;;;16.60;48.00;;;;;;5092480;28;20455;-72
2022/10/30 00:16:32;;;;;;;22.90;9.13;;;16.70;49.00;;;;;;5093559;28;20374;-72
2022/10/30 00:18:58;;;;;;;19.60;8.27;;;16.60;49.00;;;;;;5098693;28;20382;-73
2022/10/30 00:21:23;;;;;;;19.33;8.40;;;16.70;49.90;;;;;;5079946;28;20386;-72
2022/10/30 00:23:51;;;;;;;18.23;8.30;;;16.80;47.80;;;;;;5081298;28;20411;-73
2022/10/30 00:26:19;;;;;;;23.15;8.88;;;16.80;47.80;;;;;;5097758;28;20382;-72
2022/10/30 00:28:51;;;;;;;21.48;8.50;;;16.80;48.30;;;;;;5092958;28;20928;-72
2022/10/30 00:31:18;;;;;;;21.10;8.77;;;16.70;49.00;;;;;;5091634;28;20413;-72
2022/10/30 00:33:47;;;;;;;21.53;8.70;;;16.70;47.80;;;;;;5091311;28;20386;-73
2022/10/30 00:36:12;;;;;;;19.40;8.40;;;16.70;47.90;;;;;;5093942;28;20370;-73
2022/10/30 00:38:38;;;;;;;20.27;8.53;;;16.70;48.50;;;;;;5095539;28;20390;-72
2022/10/30 00:41:04;;;;;;;20.77;8.50;;;16.60;49.50;;;;;;5095420;28;20388;-71
2022/10/30 00:43:38;;;;;;;22.55;8.43;;;16.60;50.30;;;;;;5095987;28;20396;-73
2022/10/30 00:46:18;;;;;;;21.63;8.18;;;16.50;49.00;;;;;;5095561;28;20854;-73
2022/10/30 00:48:51;;;;;;;18.00;8.20;;;16.60;49.80;;;;;;5095568;28;20734;-71
2022/10/30 00:51:17;;;;;;;18.70;9.07;;;16.60;50.00;;;;;;5095731;28;20785;-72
2022/10/30 00:53:45;;;;;;;20.73;8.50;;;16.50;50.20;;;;;;5097819;28;20900;-72
2022/10/30 00:56:11;;;;;;;18.30;8.10;;;16.50;51.30;;;;;;5097944;28;20378;-72
2022/10/30 00:58:45;;;;;;;17.73;8.13;;;16.50;51.60;;;;;;5098075;28;20378;-72
2022/10/30 01:01:18;;;;;;;20.42;8.57;;;16.50;52.50;;;;;;5097542;28;20442;-72
2022/10/30 01:03:45;;;;;;;21.53;8.53;;;16.40;51.70;;;;;;5097557;28;20470;-72
2022/10/30 01:06:14;;;;;;;27.50;9.73;;;16.40;51.40;;;;;;5097668;28;20378;-73
2022/10/30 01:08:40;;;;;;;17.75;8.40;;;16.40;51.70;;;;;;5097477;28;20796;-73
2022/10/30 01:11:07;;;;;;;22.60;9.02;;;16.30;53.10;;;;;;5095514;28;20762;-72
2022/10/30 01:13:34;;;;;;;19.90;8.57;;;16.30;52.50;;;;;;5095374;28;20386;-73
2022/10/30 01:16:39;;;;;;;23.50;8.60;;;16.30;52.90;;;;;;5095092;28;20382;-72
2022/10/30 01:19:20;;;;;;;18.60;8.85;;;16.10;54.30;;;;;;5095248;28;20862;-72
2022/10/30 01:21:45;;;;;;;19.75;9.02;;;16.00;55.40;;;;;;5095014;28;20378;-72
2022/10/30 01:24:19;;;;;;;20.55;9.10;;;15.90;56.20;;;;;;5095498;28;20788;-72
2022/10/30 01:26:54;;;;;;;20.02;8.57;;;15.90;56.70;;;;;;5095651;28;20796;-72
2022/10/30 01:30:01;;;;;;;21.70;8.30;;;15.80;56.80;;;;;;5095451;28;20378;-73
2022/10/30 01:32:55;;;;;;;20.45;8.75;;;15.70;58.70;;;;;;5030766;28;20731;-72
2022/10/30 01:35:39;;;;;;;21.30;9.38;;;15.80;58.40;;;;;;5095880;28;20860;-71
2022/10/30 01:38:47;;;;;;;18.30;9.15;;;15.80;59.50;;;;;;5095841;28;20374;-71
2022/10/30 01:41:12;;;;;;;22.37;9.67;;;15.90;58.70;;;;;;5063332;28;20378;-73
2022/10/30 01:43:40;;;;;;;21.33;9.53;;;15.80;59.50;;;;;;5094912;28;20378;-71
2022/10/30 01:46:36;;;;;;;18.70;8.60;;;15.80;60.40;;;;;;5095421;28;20748;-72
2022/10/30 01:49:13;;;;;;;21.75;9.93;;;15.80;60.40;;;;;;5095105;28;20390;-72
2022/10/30 01:51:56;;;;;;;20.50;8.50;;;15.80;60.00;;;;;;5094723;28;20398;-71
2022/10/30 01:54:27;;;;;;;20.55;8.50;;;15.80;60.10;;;;;;5095171;28;20398;-71
2022/10/30 01:57:03;;;;;;;16.98;8.55;;;15.70;59.70;;;;;;5095185;28;20885;-72
2022/10/30 01:59:48;;;;;;;23.88;9.70;;;15.60;61.10;;;;;;5095397;28;20393;-73
2022/10/30 02:02:14;;;;;;;20.17;8.65;;;15.50;62.60;;;;;;5096174;28;20449;-72
2022/10/30 02:04:41;;;;;;;23.97;9.37;;;15.50;62.70;;;;;;5115206;28;20390;-73
2022/10/30 02:07:06;;;;;;;24.50;9.52;;;15.50;63.40;;;;;;5115542;28;20401;-72
2022/10/30 02:09:33;;;;;;;22.90;8.75;;;15.50;63.50;;;;;;5115853;28;20402;-72
2022/10/30 02:12:00;;;;;;;26.02;8.90;;;15.40;64.40;;;;;;5097760;28;20537;-73
2022/10/30 02:14:42;;;;;;;19.85;9.20;;;15.40;65.00;;;;;;5094747;28;20378;-73
2022/10/30 02:17:10;;;;;;;20.35;9.60;;;15.40;64.90;;;;;;5094246;28;20918;-73
2022/10/30 02:19:35;;;;;;;17.95;9.07;;;15.40;65.40;;;;;;5094138;28;20382;-72
2022/10/30 02:22:01;;;;;;;21.50;9.63;;;15.50;64.40;;;;;;5094083;28;20382;-72
2022/10/30 02:24:28;;;;;;;23.40;9.27;;;15.50;63.60;;;;;;5094369;28;20374;-72
2022/10/30 02:26:53;;;;;;;21.15;9.00;;;15.50;64.50;;;;;;5093750;28;20378;-72
2022/10/30 02:29:20;;;;;;;15.90;9.10;;;15.50;64.60;;;;;;5093472;28;20436;-71
2022/10/30 02:31:46;;;;;;;22.63;9.50;;;15.50;63.80;;;;;;5092844;28;20398;-71
2022/10/30 02:34:12;;;;;;;22.10;8.77;;;15.50;64.20;;;;;;5093306;28;20902;-71
2022/10/30 02:36:37;;;;;;;24.48;9.45;;;15.40;64.00;;;;;;5092911;28;20378;-73
2022/10/30 02:39:03;;;;;;;20.40;8.68;;;15.40;64.10;;;;;;5093383;28;20389;-71
2022/10/30 02:41:29;;;;;;;21.63;8.77;;;15.40;64.90;;;;;;5092763;28;20410;-72
2022/10/30 02:43:55;;;;;;;24.98;8.98;;;15.40;65.50;;;;;;5092590;28;20874;-72
2022/10/30 02:46:21;;;;;;;16.15;8.90;;;15.40;66.50;;;;;;5093696;28;20435;-71
2022/10/30 02:48:46;;;;;;;21.83;9.10;;;15.40;67.40;;;;;;5076724;28;20435;-72
2022/10/30 02:51:12;;;;;;;21.10;9.70;;;15.50;65.80;;;;;;5080937;28;20907;-72
2022/10/30 02:53:38;;;;;;;23.07;9.53;;;15.40;65.30;;;;;;5105640;28;20782;-73
2022/10/30 02:56:05;;;;;;;18.67;9.13;;;15.30;65.90;;;;;;5091553;28;20378;-73
2022/10/30 02:58:31;;;;;;;19.58;9.68;;;15.20;67.30;;;;;;5110355;28;20386;-75
2022/10/30 03:00:56;;;;;;;25.48;8.98;;;15.30;67.10;;;;;;5104696;28;20439;-72
2022/10/30 03:03:22;;;;;;;22.83;9.40;;;15.20;67.90;;;;;;5093432;28;20393;-72
2022/10/30 03:05:47;;;;;;;18.10;9.27;;;15.20;68.10;;;;;;5099575;28;20393;-72
2022/10/30 03:08:13;;;;;;;19.90;9.25;;;15.20;69.10;;;;;;5112925;28;20382;-73
2022/10/30 03:10:38;;;;;;;18.90;9.38;;;15.20;69.80;;;;;;5095646;28;20398;-72
2022/10/30 03:13:04;;;;;;;22.73;9.27;;;15.20;69.10;;;;;;5109022;28;20414;-72
2022/10/30 03:15:30;;;;;;;21.53;8.77;;;15.20;69.70;;;;;;5104248;28;20385;-73
2022/10/30 03:17:55;;;;;;;16.85;8.68;;;15.20;68.70;;;;;;5103266;28;20439;-72
2022/10/30 03:20:21;;;;;;;22.27;9.40;;;15.20;67.50;;;;;;5101231;28;20381;-71
2022/10/30 03:22:46;;;;;;;18.00;9.00;;;15.30;67.50;;;;;;5098492;28;20385;-72
2022/10/30 03:25:12;;;;;;;31.23;9.38;;;15.20;68.30;;;;;;5097090;28;20390;-72
2022/10/30 03:27:37;;;;;;;23.90;9.30;;;15.20;68.60;;;;;;5093751;28;20385;-73
2022/10/30 03:30:03;;;;;;;26.90;9.60;;;15.10;69.90;;;;;;5096376;28;20516;-73
2022/10/30 03:32:28;;;;;;;16.95;9.73;;;15.00;70.80;;;;;;5078409;28;20390;-72
2022/10/30 03:34:54;;;;;;;19.23;9.57;;;14.90;72.10;;;;;;5093674;28;20386;-73
2022/10/30 03:37:19;;;;;;;21.35;9.85;;;14.90;73.20;;;;;;5093614;28;20444;-73
2022/10/30 03:39:45;;;;;;;18.57;9.53;;;14.80;74.40;;;;;;5092847;28;20390;-72
2022/10/30 03:42:11;;;;;;;23.27;10.40;;;14.70;74.90;;;;;;5093616;28;20384;-73
2022/10/30 03:44:36;;;;;;;20.85;9.85;;;14.70;76.00;;;;;;5093660;28;20481;-73
2022/10/30 03:47:02;;;;;;;17.07;9.43;;;14.70;76.70;;;;;;5092616;28;20407;-72
2022/10/30 03:49:27;;;;;;;21.87;9.77;;;14.60;77.30;;;;;;5091632;28;20378;-71
2022/10/30 03:51:53;;;;;;;24.75;10.18;;;14.60;77.50;;;;;;5091256;28;20940;-72
2022/10/30 03:54:18;;;;;;;24.17;10.05;;;14.60;78.60;;;;;;5092206;28;20398;-72
2022/10/30 03:56:44;;;;;;;19.23;9.80;;;14.60;78.60;;;;;;5092398;28;20893;-71
2022/10/30 03:59:10;;;;;;;21.63;10.02;;;14.50;78.80;;;;;;5093208;28;20374;-72
2022/10/30 04:01:37;;;;;;;26.23;9.90;;;14.60;77.10;;;;;;5092482;28;20393;-72
2022/10/30 04:04:02;;;;;;;25.23;9.70;;;14.60;76.10;;;;;;5092588;28;20386;-71
2022/10/30 04:06:28;;;;;;;24.00;9.43;;;14.50;77.00;;;;;;5091641;28;20465;-73
2022/10/30 04:08:54;;;;;;;27.83;9.55;;;14.50;77.90;;;;;;5091763;28;20397;-71
2022/10/30 04:11:19;;;;;;;19.15;10.00;;;14.40;79.30;;;;;;5091020;28;20483;-71
2022/10/30 04:13:45;;;;;;;24.30;10.20;;;14.40;80.00;;;;;;5091794;28;20374;-71
2022/10/30 04:16:11;;;;;;;22.45;10.23;;;14.40;79.30;;;;;;5094084;28;20405;-73
2022/10/30 04:18:36;;;;;;;28.35;9.68;;;14.40;79.80;;;;;;5099369;28;20386;-74
2022/10/30 04:21:02;;;;;;;22.47;10.27;;;14.50;79.80;;;;;;5097390;28;20403;-72
2022/10/30 04:23:27;;;;;;;27.53;10.70;;;14.40;80.60;;;;;;5099722;28;20389;-72
2022/10/30 04:25:53;;;;;;;26.52;10.15;;;14.50;80.20;;;;;;5094939;28;20915;-71
2022/10/30 04:28:20;;;;;;;24.08;9.98;;;14.50;78.20;;;;;;5095126;28;20409;-72
2022/10/30 04:30:46;;;;;;;22.77;9.75;;;14.50;77.60;;;;;;5091146;28;20969;-72
2022/10/30 04:33:13;;;;;;;20.40;10.00;;;14.50;76.90;;;;;;5091665;28;20374;-72
2022/10/30 04:35:39;;;;;;;17.95;10.40;;;14.50;78.10;;;;;;5091377;28;20529;-72
2022/10/30 04:38:07;;;;;;;20.23;10.07;;;14.50;78.90;;;;;;5091382;28;20708;-71
2022/10/30 04:40:35;;;;;;;21.08;10.27;;;14.40;79.00;;;;;;5091804;28;20472;-72
2022/10/30 04:43:01;;;;;;;23.23;10.20;;;14.50;77.50;;;;;;5091024;28;20855;-72
2022/10/30 04:45:28;;;;;;;25.00;9.48;;;14.40;77.80;;;;;;5091565;28;20384;-72
2022/10/30 04:48:01;;;;;;;28.83;10.80;;;14.30;79.00;;;;;;5091243;28;20391;-72
2022/10/30 04:50:27;;;;;;;20.45;9.70;;;14.40;77.20;;;;;;5091261;28;20394;-73
2022/10/30 04:53:09;;;;;;;18.20;10.18;;;14.30;78.20;;;;;;5090731;28;20447;-72
2022/10/30 04:55:34;;;;;;;21.20;9.77;;;14.30;78.90;;;;;;5091578;28;20469;-72
2022/10/30 04:58:03;;;;;;;23.80;10.68;;;14.20;79.50;;;;;;5091692;28;20477;-72
2022/10/30 05:00:30;;;;;;;24.05;10.93;;;14.20;80.10;;;;;;5091023;28;20382;-72
2022/10/30 05:02:59;;;;;;;17.67;9.93;;;14.20;79.80;;;;;;5090992;28;20386;-72
2022/10/30 05:05:25;;;;;;;25.48;10.45;;;14.20;79.90;;;;;;5073296;28;20473;-72
2022/10/30 05:07:51;;;;;;;23.67;9.60;;;14.20;79.90;;;;;;5091205;28;20390;-71
2022/10/30 05:10:17;;;;;;;23.23;10.52;;;14.10;81.40;;;;;;5091412;28;20763;-72
2022/10/30 05:12:44;;;;;;;18.88;9.50;;;14.00;81.70;;;;;;5090965;28;20382;-70
2022/10/30 05:15:11;;;;;;;20.10;10.15;;;14.00;82.00;;;;;;5091212;28;20409;-72
2022/10/30 05:17:37;;;;;;;19.05;10.25;;;14.00;82.70;;;;;;5090676;28;20378;-71
2022/10/30 05:20:03;;;;;;;26.70;10.57;;;14.00;83.40;;;;;;5073146;28;20397;-72
2022/10/30 05:22:29;;;;;;;21.73;10.68;;;14.00;82.80;;;;;;5091868;28;20499;-73
2022/10/30 05:24:54;;;;;;;25.40;10.52;;;13.90;84.00;;;;;;5094525;28;20423;-73
2022/10/30 05:27:20;;;;;;;21.27;10.00;;;14.00;83.70;;;;;;5094738;28;20485;-72
2022/10/30 05:29:45;;;;;;;23.80;10.27;;;14.00;83.10;;;;;;5094428;28;20386;-72
2022/10/30 05:32:11;;;;;;;20.37;10.67;;;13.90;84.20;;;;;;5094342;28;20414;-72
2022/10/30 05:34:36;;;;;;;23.30;10.70;;;13.80;85.50;;;;;;5094882;28;20378;-71
2022/10/30 05:37:02;;;;;;;24.57;9.83;;;13.80;85.90;;;;;;5094785;28;20862;-72
2022/10/30 05:39:27;;;;;;;22.60;10.27;;;13.70;87.80;;;;;;5094534;28;20370;-73
2022/10/30 05:41:53;;;;;;;22.47;10.20;;;13.70;87.70;;;;;;5094162;28;20482;-73
2022/10/30 05:44:18;;;;;;;19.55;9.73;;;13.70;88.40;;;;;;5094815;28;20378;-72
2022/10/30 05:46:44;;;;;;;24.63;10.97;;;13.70;89.50;;;;;;5095294;28;20385;-71
2022/10/30 05:49:09;;;;;;;23.10;10.87;;;13.70;87.40;;;;;;5095227;28;20939;-72
2022/10/30 05:51:35;;;;;;;24.65;10.73;;;13.70;87.00;;;;;;5094776;28;20963;-71
2022/10/30 05:54:01;;;;;;;20.60;9.88;;;13.70;87.70;;;;;;5095368;28;20390;-73
2022/10/30 05:56:26;;;;;;;19.08;10.25;;;13.70;87.50;;;;;;5097452;28;20401;-72
2022/10/30 05:58:52;;;;;;;23.03;10.60;;;13.70;87.70;;;;;;5079026;28;20394;-73
2022/10/30 06:01:17;;;;;;;23.77;11.00;;;13.70;87.50;;;;;;5096375;28;20381;-73
2022/10/30 06:03:43;;;;;;;23.55;10.60;;;13.70;87.50;;;;;;5095867;28;20443;-73
2022/10/30 06:06:08;;;;;;;21.70;11.07;;;13.70;87.20;;;;;;5095935;28;20386;-73
2022/10/30 06:08:34;;;;;;;24.80;10.82;;;13.70;87.20;;;;;;5094813;28;20417;-72
2022/10/30 06:11:00;;;;;;;23.23;10.87;;;13.70;85.80;;;;;;5094757;28;20394;-73
2022/10/30 06:13:25;;;;;;;23.67;10.50;;;13.70;86.10;;;;;;5098743;28;20366;-72
2022/10/30 06:15:55;;;;;;;20.10;10.90;;;13.60;87.70;;;;;;5111263;28;20381;-71
2022/10/30 06:18:20;;;;;;;20.60;9.80;;;13.70;87.70;;;;;;5115569;28;20374;-72
2022/10/30 06:20:46;;;;;;;24.15;10.93;;;13.70;87.30;;;;;;5113937;28;20407;-72
2022/10/30 06:23:11;;;;;;;21.63;10.60;;;13.70;87.20;;;;;;5107592;28;20398;-71
2022/10/30 06:25:37;;;;;;;21.43;10.27;;;13.60;87.50;;;;;;5093963;28;20435;-70
2022/10/30 06:28:03;;;;;;;20.77;11.00;;;13.60;88.00;;;;;;5094007;28;20474;-72
2022/10/30 06:30:29;;;;;;;22.88;11.13;;;13.70;87.50;;;;;;5093569;28;20469;-72
2022/10/30 06:33:03;;;;;;;25.75;10.70;;;13.70;88.50;;;;;;5074344;28;20374;-71
2022/10/30 06:35:29;;;;;;;30.08;11.35;;;13.70;88.40;;;;;;5093926;28;20871;-72
2022/10/30 06:37:55;;;;;;;23.57;10.87;;;13.70;86.70;;;;;;5094108;28;20461;-73
2022/10/30 06:40:22;;;;;;;21.85;10.73;;;13.70;88.40;;;;;;5093840;28;20382;-72
2022/10/30 06:42:50;;;;;;;24.33;11.43;;;13.70;86.50;;;;;;5093737;28;20727;-71
2022/10/30 06:45:18;;;;;;;23.02;10.93;;;13.70;86.20;;;;;;5094153;28;20789;-73
2022/10/30 06:47:44;;;;;;;17.60;10.20;;;13.70;86.90;;;;;;5093095;28;20413;-72
2022/10/30 06:50:12;;;;;;;20.67;10.88;;;13.70;87.60;;;;;;5095258;28;20414;-72
2022/10/30 06:52:37;;;;;;;24.65;11.70;;;13.70;86.90;;;;;;5094449;28;20402;-73
2022/10/30 06:55:04;;;;;;;17.95;10.52;;;13.70;86.40;;;;;;5094632;28;20457;-73
2022/10/30 06:57:30;;;;;;;26.60;11.07;;;13.80;85.70;;;;;;5094073;28;20386;-72
2022/10/30 06:59:56;;;;;;;20.42;10.77;;;13.80;84.70;;;;;;5092823;28;20427;-71
2022/10/30 07:02:21;;;;;;;23.57;9.90;;;13.90;84.00;;;;;;5092957;28;20493;-71
2022/10/30 07:04:47;;;;;;;19.57;10.03;;;13.90;83.80;;;;;;5092895;28;20370;-71
2022/10/30 07:07:13;;;;;;;24.77;11.02;;;14.00;83.30;;;;;;5092931;28;20743;-72
2022/10/30 07:09:39;;;;;;;26.20;10.35;;;14.00;83.00;;;;;;5093257;28;20382;-71
2022/10/30 07:12:05;;;;;;;20.17;10.48;;;14.10;82.50;;;;;;5092525;28;20406;-72
2022/10/30 07:14:31;;;;;;;29.52;10.38;;;14.10;81.30;;;;;;5093218;28;20743;-72
2022/10/30 07:16:56;;;;;;;23.10;10.70;;;14.20;81.10;;;;;;5093168;28;20384;-72
2022/10/30 07:19:22;;;;;;;19.33;9.95;;;14.20;80.30;;;;;;5093648;28;20378;-70
2022/10/30 07:21:48;;;;;;;23.73;10.75;;;14.30;80.20;;;;;;5093045;28;20394;-73
2022/10/30 07:24:14;;;;;;;22.55;9.80;;;14.30;77.90;;;;;;5092938;28;20727;-73
2022/10/30 07:26:39;;;;;;;32.13;11.30;;;14.40;76.10;;;;;;5093563;28;20407;-71
2022/10/30 07:29:05;;;;;;;24.70;10.77;;;14.50;76.70;;;;;;5093749;28;20897;-71
2022/10/30 07:31:31;;;;;;;22.07;10.20;;;14.50;76.90;;;;;;5074647;28;20398;-73
2022/10/30 07:33:57;;;;;;;21.47;10.13;;;14.50;76.40;;;;;;5094704;28;20485;-72
2022/10/30 07:36:23;;;;;;;25.50;10.95;;;14.60;76.60;;;;;;5092681;28;20397;-72
2022/10/30 07:38:51;;;;;;;24.67;10.20;;;14.60;76.10;;;;;;5093523;28;20461;-71
2022/10/30 07:41:18;;;;;;;27.60;10.15;;;14.60;75.10;;;;;;5093187;28;20404;-72
2022/10/30 07:43:44;;;;;;;17.67;9.80;;;14.70;73.70;;;;;;5092525;28;20516;-72
2022/10/30 07:46:10;;;;;;;25.23;10.83;;;14.80;72.80;;;;;;5092161;28;20447;-71
2022/10/30 07:48:35;;;;;;;22.63;10.70;;;14.90;71.60;;;;;;5092703;28;20382;-73
2022/10/30 07:51:01;;;;;;;22.80;10.30;;;15.00;70.60;;;;;;5092372;28;20413;-72
2022/10/30 07:53:27;;;;;;;22.65;11.25;;;15.10;69.30;;;;;;5074108;28;20405;-72
2022/10/30 07:55:52;;;;;;;23.67;10.10;;;15.20;68.70;;;;;;5092523;28;20797;-71
2022/10/30 07:58:18;;;;;;;24.77;10.70;;;15.30;68.70;;;;;;5092787;28;20409;-74
2022/10/30 08:00:43;;;;;;;17.67;10.57;;;15.50;65.50;;;;;;5093298;28;20410;-72
2022/10/30 08:03:10;;;;;;;28.10;10.52;;;16.10;60.30;;;;;;5092766;28;20385;-72
2022/10/30 08:05:36;;;;;;;17.50;9.52;;;16.60;56.60;;;;;;5092581;28;20408;-73
2022/10/30 08:08:01;;;;;;;24.33;9.95;;;16.60;52.70;;;;;;5091847;28;20394;-72
2022/10/30 08:10:27;;;;;;;26.17;10.77;;;16.60;53.30;;;;;;5074956;28;20758;-72
2022/10/30 08:12:53;;;;;;;23.63;11.03;;;16.50;54.30;;;;;;5092795;28;20397;-74
2022/10/30 08:15:19;;;;;;;20.97;10.07;;;16.40;54.70;;;;;;5093184;28;20476;-73
2022/10/30 08:17:46;;;;;;;21.05;10.18;;;16.40;53.90;;;;;;5093630;28;20390;-72
2022/10/30 08:20:14;;;;;;;18.02;10.25;;;16.40;53.50;;;;;;5092853;28;20390;-73
2022/10/30 08:22:47;;;;;;;28.20;10.05;;;16.50;54.60;;;;;;5093255;28;20442;-73
2022/10/30 08:25:13;;;;;;;21.73;10.60;;;16.50;53.30;;;;;;5096387;28;20402;-73
2022/10/30 08:27:47;;;;;;;20.75;10.32;;;16.60;53.20;;;;;;5078718;28;20378;-72
2022/10/30 08:30:13;;;;;;;19.23;9.00;;;16.70;51.50;;;;;;5073387;28;20411;-70
2022/10/30 08:32:38;;;;;;;24.77;10.15;;;16.70;51.50;;;;;;5072452;28;20768;-72
2022/10/30 08:35:04;;;;;;;25.57;9.87;;;16.80;51.60;;;;;;5071783;28;20741;-71
2022/10/30 08:37:30;;;;;;;16.53;8.90;;;16.80;50.90;;;;;;5075430;28;20398;-71
2022/10/30 08:39:55;;;;;;;27.60;9.10;;;16.90;51.00;;;;;;5074730;28;20720;-72
2022/10/30 08:42:21;;;;;;;19.13;9.20;;;16.90;50.60;;;;;;5091445;28;20377;-73
2022/10/30 08:44:46;;;;;;;15.90;8.77;;;16.90;49.90;;;;;;5073612;28;20378;-72
2022/10/30 08:47:12;;;;;;;23.27;9.37;;;17.00;49.70;;;;;;5092775;28;20469;-71
2022/10/30 08:49:37;;;;;;;19.13;8.52;;;17.00;50.30;;;;;;5092673;28;20719;-73
2022/10/30 08:52:07;;;;;;;22.00;8.80;;;17.10;49.30;;;;;;5091841;28;20415;-73
2022/10/30 08:54:33;;;;;;;18.65;8.50;;;17.20;48.20;;;;;;5094195;28;20381;-72
2022/10/30 08:56:58;;;;;;;19.03;8.80;;;17.40;48.10;;;;;;5095067;28;20466;-72
2022/10/30 08:59:24;;;;;;;19.00;8.50;;;17.50;45.80;;;;;;5077555;28;20412;-72
2022/10/30 09:01:49;;;;;;;19.87;8.70;;;17.60;44.80;;;;;;5095092;28;20882;-72
2022/10/30 09:04:15;;;;;;;17.17;7.97;;;17.70;44.50;;;;;;5095634;28;20420;-72
2022/10/30 09:06:41;;;;;;;29.40;8.90;;;17.80;44.40;;;;;;5079512;28;20450;-70
2022/10/30 09:09:06;;;;;;;19.17;8.10;;;17.80;43.00;;;;;;5095933;28;20457;-74
2022/10/30 09:11:32;;;;;;;22.47;8.87;;;17.90;43.20;;;;;;5095175;28;20400;-72
2022/10/30 09:13:57;;;;;;;23.00;8.30;;;18.10;42.10;;;;;;5087585;28;20419;-72
2022/10/30 09:16:23;;;;;;;26.93;8.80;;;18.10;41.70;;;;;;5055906;28;20395;-72
2022/10/30 09:18:48;;;;;;;20.30;8.50;;;18.20;41.80;;;;;;5091835;28;20484;-71
2022/10/30 09:21:14;;;;;;;18.20;8.10;;;18.40;41.40;;;;;;5092092;28;20386;-72
2022/10/30 09:23:42;;;;;;;17.87;8.47;;;18.50;39.80;;;;;;5092217;28;20378;-71
2022/10/30 09:26:08;;;;;;;18.40;8.38;;;18.60;39.40;;;;;;5087874;28;20448;-71
2022/10/30 09:28:34;;;;;;;15.80;7.90;;;18.60;39.20;;;;;;5093611;28;20477;-72
2022/10/30 09:31:01;;;;;;;20.63;8.63;;;18.80;38.40;;;;;;5092948;28;20500;-72
2022/10/30 09:33:26;;;;;;;28.70;9.18;;;18.90;38.40;;;;;;5090522;28;20404;-71
2022/10/30 09:35:52;;;;;;;22.50;8.30;;;19.00;37.50;;;;;;5091358;28;20374;-71
2022/10/30 09:38:17;;;;;;;21.27;8.20;;;19.00;37.50;;;;;;5091783;28;20417;-71
2022/10/30 09:41:02;;;;;;;20.07;8.27;;;19.00;37.50;;;;;;5092008;28;20389;-72
2022/10/30 09:43:46;;;;;;;19.45;8.30;;;19.00;37.70;;;;;;5091935;28;20405;-71
2022/10/30 09:46:33;;;;;;;16.75;7.50;;;19.00;37.50;;;;;;5092864;28;20722;-72
2022/10/30 09:49:28;;;;;;;18.60;7.45;;;19.10;37.30;;;;;;5091547;28;20532;-72
2022/10/30 09:52:10;;;;;;;20.00;7.70;;;19.20;36.70;;;;;;5050303;28;20459;-71
2022/10/30 09:54:43;;;;;;;23.83;7.90;;;19.20;36.70;;;;;;5087522;28;20901;-71
2022/10/30 09:57:22;;;;;;;19.45;8.00;;;19.30;36.00;;;;;;5092713;28;20481;-70
2022/10/30 10:00:14;;;;;;;20.73;7.70;;;19.40;36.20;;;;;;5092509;28;20950;-71
2022/10/30 10:02:52;;;;;;;17.60;7.80;;;19.50;35.60;;;;;;5092104;28;20902;-72
2022/10/30 10:05:28;;;;;;;22.75;8.40;;;19.60;35.80;;;;;;5092044;28;20393;-71
2022/10/30 10:08:03;;;;;;;20.70;8.00;;;19.60;35.00;;;;;;5072106;28;20395;-71
2022/10/30 10:10:50;;;;;;;17.95;7.72;;;19.70;34.60;;;;;;5091216;28;20408;-72
2022/10/30 10:13:31;;;;;;;25.05;8.30;;;19.80;33.10;;;;;;5091735;28;20370;-71
2022/10/30 10:16:20;;;;;;;23.33;7.90;;;19.90;33.10;;;;;;5082542;28;20407;-71
2022/10/30 10:18:48;;;;;;;20.50;7.88;;;20.00;32.90;;;;;;5096013;28;20382;-71
2022/10/30 10:21:24;;;;;;;19.10;8.23;;;20.00;32.70;;;;;;5096105;28;20516;-70
2022/10/30 10:23:54;;;;;;;21.30;7.40;;;20.00;33.00;;;;;;5085830;28;20376;-72
2022/10/30 10:26:41;;;;;;;17.33;8.10;;;20.00;33.00;;;;;;5088292;28;20388;-72
2022/10/30 10:29:24;;;;;;;18.23;7.38;;;20.10;33.50;;;;;;5082805;28;20379;-72
2022/10/30 10:32:27;;;;;;;17.00;7.43;;;20.20;32.60;;;;;;5084529;28;20535;-72
2022/10/30 10:35:31;;;;;;;23.30;8.38;;;20.30;32.20;;;;;;5094640;28;20377;-72
2022/10/30 10:38:30;;;;;;;20.08;8.02;;;20.40;32.40;;;;;;5071030;28;20415;-72
2022/10/30 10:41:20;;;;;;;23.55;8.07;;;20.40;32.00;;;;;;5093022;28;20378;-72
2022/10/30 10:44:22;;;;;;;18.65;8.30;;;20.50;31.50;;;;;;5093235;28;20382;-73
2022/10/30 10:47:08;;;;;;;23.98;8.30;;;20.60;31.90;;;;;;5094727;28;20874;-72
2022/10/30 10:50:06;;;;;;;20.85;8.30;;;20.70;31.60;;;;;;5093345;28;20389;-72
2022/10/30 10:52:36;;;;;;;18.83;7.30;;;20.80;31.10;;;;;;5089291;28;20760;-72
2022/10/30 10:55:13;;;;;;;23.17;7.90;;;20.90;30.10;;;;;;5093612;28;20474;-72
2022/10/30 10:57:41;;;;;;;22.65;8.20;;;20.90;30.40;;;;;;5084809;28;20923;-73
2022/10/30 11:00:12;;;;;;;23.10;8.20;;;20.80;31.10;;;;;;5090813;28;20421;-73
2022/10/30 11:02:42;;;;;;;15.75;7.00;;;20.90;30.70;;;;;;5092352;28;20461;-72
2022/10/30 11:05:23;;;;;;;14.85;7.70;;;20.90;31.10;;;;;;5095050;28;20370;-72
2022/10/30 11:07:50;;;;;;;18.08;7.53;;;20.90;31.00;;;;;;5093723;28;20915;-72
2022/10/30 11:10:18;;;;;;;18.88;8.00;;;21.00;30.90;;;;;;5094638;28;20398;-72
2022/10/30 11:12:44;;;;;;;20.35;8.75;;;21.00;31.40;;;;;;5093196;28;20785;-72
2022/10/30 11:15:46;;;;;;;12.65;7.40;;;21.10;31.30;;;;;;5094696;28;20405;-72
2022/10/30 11:18:14;;;;;;;19.48;8.10;;;21.10;30.90;;;;;;5093974;28;20373;-73
2022/10/30 11:20:49;;;;;;;17.77;7.95;;;21.20;30.30;;;;;;5092996;28;20393;-73
2022/10/30 11:23:44;;;;;;;17.00;7.00;;;21.20;30.20;;;;;;5093638;28;20390;-70
2022/10/30 11:26:24;;;;;;;15.93;7.60;;;21.20;30.20;;;;;;5093161;28;20381;-72
2022/10/30 11:28:55;;;;;;;24.27;7.93;;;21.30;29.80;;;;;;5092576;28;20377;-71
2022/10/30 11:31:20;;;;;;;19.23;7.57;;;21.30;30.10;;;;;;5092277;28;20808;-72
2022/10/30 11:33:47;;;;;;;20.67;7.90;;;21.40;30.00;;;;;;5093222;28;20445;-72
2022/10/30 11:36:20;;;;;;;21.92;7.50;;;21.40;29.50;;;;;;5093871;28;20422;-72
2022/10/30 11:38:45;;;;;;;18.80;6.93;;;21.50;29.30;;;;;;5092861;28;20384;-72
2022/10/30 11:41:13;;;;;;;20.00;7.50;;;21.50;28.30;;;;;;5092647;28;20894;-72
2022/10/30 11:43:40;;;;;;;21.67;7.45;;;21.50;27.80;;;;;;5092242;28;20461;-72
2022/10/30 11:46:09;;;;;;;18.45;6.90;;;21.60;28.30;;;;;;5092429;28;20937;-71
2022/10/30 11:48:38;;;;;;;20.98;7.20;;;21.60;28.30;;;;;;5073619;28;20390;-72
2022/10/30 11:51:04;;;;;;;20.65;6.47;;;21.50;26.70;;;;;;5092220;28;20400;-72
2022/10/30 11:53:47;;;;;;;25.48;7.53;;;21.50;26.70;;;;;;5091239;28;20457;-72
2022/10/30 11:56:21;;;;;;;18.80;7.30;;;21.50;26.70;;;;;;5092579;28;20408;-72
2022/10/30 11:58:54;;;;;;;20.00;7.00;;;21.60;26.70;;;;;;5092506;28;20378;-72
2022/10/30 12:01:26;;;;;;;19.67;7.50;;;21.60;26.70;;;;;;5091786;28;20421;-72
2022/10/30 12:03:53;;;;;;;19.23;7.03;;;21.60;26.70;;;;;;5092376;28;20387;-73
2022/10/30 12:06:22;;;;;;;18.27;7.93;;;21.50;27.00;;;;;;5093527;28;20389;-72
2022/10/30 12:09:11;;;;;;;16.80;7.05;;;21.50;27.30;;;;;;5092313;28;20472;-72
2022/10/30 12:11:42;;;;;;;19.07;7.27;;;21.70;26.80;;;;;;5091535;28;20464;-72
2022/10/30 12:14:20;;;;;;;18.00;7.25;;;21.70;26.50;;;;;;5092083;28;20738;-71
2022/10/30 12:16:49;;;;;;;21.15;7.60;;;21.70;26.70;;;;;;5092062;28;20476;-71
2022/10/30 12:19:16;;;;;;;19.85;7.40;;;21.80;26.90;;;;;;5091424;28;20400;-73
2022/10/30 12:21:55;;;;;;;14.10;7.18;;;21.70;26.70;;;;;;5072839;28;20398;-72
2022/10/30 12:24:37;;;;;;;15.48;8.18;;;21.80;26.20;;;;;;5073647;28;20894;-72
2022/10/30 12:27:10;;;;;;;22.40;7.10;;;21.90;26.00;;;;;;5092078;28;20480;-73
2022/10/30 12:29:50;;;;;;;19.27;7.20;;;22.00;26.20;;;;;;5095564;28;20433;-73
2022/10/30 12:32:20;;;;;;;19.63;7.93;;;21.90;26.80;;;;;;5097160;28;20406;-72
2022/10/30 12:34:56;;;;;;;17.30;6.78;;;21.90;27.00;;;;;;5096370;28;20472;-70
2022/10/30 12:37:30;;;;;;;20.03;7.97;;;22.00;27.10;;;;;;5096306;28;20592;-75
2022/10/30 12:40:34;;;;;;;22.42;7.07;;;22.00;27.20;;;;;;5095611;28;20405;-72
2022/10/30 12:43:22;;;;;;;17.67;7.00;;;22.10;27.10;;;;;;5013748;28;20389;-72
2022/10/30 12:45:51;;;;;;;15.90;7.40;;;22.20;26.10;;;;;;5091078;28;20807;-72
2022/10/30 12:48:36;;;;;;;21.45;7.95;;;22.20;26.70;;;;;;5078253;28;20461;-71